createdAt,value
2018-11-28T00:04:46.970Z,14.77
2018-11-28T00:10:11.751Z,15.90
2018-11-28T00:15:16.159Z,14.00
2018-11-28T00:20:22.845Z,15.77
2018-11-28T00:25:28.298Z,13.67
2018-11-28T00:30:33.154Z,18.77
2018-11-28T00:35:38.215Z,18.53
2018-11-28T00:40:43.687Z,17.83
2018-11-28T00:45:47.800Z,15.53
2018-11-28T00:50:51.939Z,15.37
2018-11-28T00:55:57.429Z,16.70
2018-11-28T01:01:01.842Z,16.37
2018-11-28T01:06:06.259Z,12.33
2018-11-28T01:11:13.239Z,13.40
2018-11-28T01:16:17.690Z,17.70
2018-11-28T01:21:22.182Z,18.70
2018-11-28T01:26:28.324Z,21.20
2018-11-28T01:31:33.462Z,21.03
2018-11-28T01:36:38.528Z,19.57
2018-11-28T01:41:42.987Z,20.80
2018-11-28T01:46:49.110Z,18.73
2018-11-28T01:51:53.614Z,19.23
2018-11-28T01:56:57.714Z,21.10
2018-11-28T02:02:03.470Z,21.03
2018-11-28T02:07:08.942Z,22.70
2018-11-28T02:12:14.157Z,20.50
2018-11-28T02:17:19.296Z,24.10
2018-11-28T02:22:25.078Z,19.17
2018-11-28T02:27:29.217Z,22.60
2018-11-28T02:32:33.347Z,18.87
2018-11-28T02:37:38.838Z,21.27
2018-11-28T02:42:42.993Z,18.00
2018-11-28T02:47:48.458Z,19.60
2018-11-28T02:52:52.910Z,19.47
2018-11-28T02:57:57.035Z,19.20
2018-11-28T03:03:01.165Z,19.60
2018-11-28T03:08:07.187Z,20.70
2018-11-28T03:13:11.641Z,19.13
2018-11-28T03:18:16.210Z,17.00
2018-11-28T03:23:20.381Z,18.23
2018-11-28T03:28:24.871Z,15.67
2018-11-28T03:33:29.984Z,19.70
2018-11-28T03:38:34.775Z,18.10
2018-11-28T03:43:39.240Z,16.73
2018-11-28T03:48:43.343Z,13.87
2018-11-28T03:53:47.993Z,16.97
2018-11-28T03:58:52.090Z,15.83
2018-11-28T04:03:56.554Z,15.73
2018-11-28T04:09:01.647Z,13.63
2018-11-28T04:14:05.538Z,16.13
2018-11-28T04:19:10.031Z,16.93
2018-11-28T04:24:16.898Z,16.17
2018-11-28T04:29:22.080Z,18.73
2018-11-28T04:34:26.199Z,17.57
2018-11-28T04:39:31.398Z,18.27
2018-11-28T04:44:35.515Z,18.37
2018-11-28T04:49:39.987Z,16.13
2018-11-28T04:54:44.449Z,15.63
2018-11-28T04:59:49.546Z,16.07
2018-11-28T05:04:54.707Z,20.53
2018-11-28T05:09:59.263Z,16.30
2018-11-28T05:15:04.407Z,22.30
2018-11-28T05:20:09.976Z,18.77
2018-11-28T05:25:18.398Z,17.60
2018-11-28T05:30:24.469Z,17.20
2018-11-28T05:35:37.442Z,15.97
2018-11-28T05:40:42.586Z,17.70
2018-11-28T05:45:48.153Z,17.63
2018-11-28T05:50:52.245Z,17.30
2018-11-28T05:55:56.717Z,19.43
2018-11-28T06:01:01.484Z,18.70
2018-11-28T06:06:05.965Z,16.27
2018-11-28T06:11:10.773Z,20.13
2018-11-28T06:16:17.261Z,19.20
2018-11-28T06:21:21.727Z,23.20
2018-11-28T06:26:27.515Z,22.00
2018-11-28T06:31:32.997Z,22.47
2018-11-28T06:36:37.796Z,23.17
2018-11-28T06:41:41.919Z,29.73
2018-11-28T06:46:46.696Z,26.00
2018-11-28T06:51:51.777Z,25.17
2018-11-28T06:56:56.208Z,24.63
2018-11-28T07:02:01.664Z,23.93
2018-11-28T07:07:06.872Z,25.70
2018-11-28T07:12:11.038Z,24.27
2018-11-28T07:17:15.510Z,24.53
2018-11-28T07:22:20.034Z,25.77
2018-11-28T07:27:24.156Z,24.50
2018-11-28T07:32:28.583Z,32.30
2018-11-28T07:37:33.048Z,32.47
2018-11-28T07:42:37.504Z,30.73
2018-11-28T07:47:43.268Z,39.63
2018-11-28T07:52:48.068Z,30.97
2018-11-28T07:57:52.179Z,35.67
2018-11-28T08:02:57.125Z,34.70
2018-11-28T08:08:02.559Z,32.47
2018-11-28T08:13:07.164Z,29.73
2018-11-28T08:18:11.627Z,34.77
2018-11-28T08:23:17.105Z,31.70
2018-11-28T08:28:22.318Z,30.27
2018-11-28T08:33:26.095Z,26.13
2018-11-28T08:38:30.556Z,27.30
2018-11-28T08:43:35.087Z,29.47
2018-11-28T08:48:39.544Z,29.43
2018-11-28T08:53:44.352Z,23.73
2018-11-28T08:58:48.821Z,24.57
2018-11-28T09:03:54.246Z,23.50
2018-11-28T09:08:59.020Z,27.53
2018-11-28T09:14:04.767Z,22.20
2018-11-28T09:19:09.249Z,23.13
2018-11-28T09:24:14.765Z,25.67
2018-11-28T09:29:19.222Z,22.43
2018-11-28T09:34:24.912Z,20.43
2018-11-28T09:39:30.361Z,22.10
2018-11-28T09:44:34.802Z,21.10
2018-11-28T09:49:39.286Z,23.30
2018-11-28T09:54:44.666Z,17.70
2018-11-28T09:59:49.094Z,16.93
2018-11-28T10:04:54.873Z,20.60
2018-11-28T10:09:59.314Z,17.50
2018-11-28T10:15:03.692Z,13.17
2018-11-28T10:20:08.977Z,15.23
2018-11-28T10:25:13.986Z,14.80
2018-11-28T10:30:20.298Z,13.80
2018-11-28T10:35:25.408Z,12.17
2018-11-28T10:40:29.488Z,13.23
2018-11-28T10:45:33.942Z,11.70
2018-11-28T10:50:40.068Z,15.70
2018-11-28T10:55:44.532Z,12.80
2018-11-28T11:00:53.987Z,11.83
2018-11-28T11:08:11.612Z,12.57
2018-11-28T11:13:22.136Z,12.77
2018-11-28T11:18:26.857Z,9.60
2018-11-28T11:23:31.598Z,11.87
2018-11-28T11:28:35.727Z,9.57
2018-11-28T11:33:40.175Z,8.47
2018-11-28T11:38:44.624Z,10.80
2018-11-28T11:43:49.407Z,10.77
2018-11-28T11:48:53.519Z,11.37
2018-11-28T11:53:57.671Z,11.93
2018-11-28T11:59:01.784Z,11.97
2018-11-28T12:04:06.250Z,10.63
2018-11-28T12:09:11.045Z,12.30
2018-11-28T12:14:16.219Z,11.70
2018-11-28T12:19:20.645Z,12.73
2018-11-28T12:24:25.796Z,11.60
2018-11-28T12:29:30.553Z,18.13
2018-11-28T12:34:35.733Z,11.77
2018-11-28T12:39:40.766Z,10.53
2018-11-28T12:44:46.198Z,9.00
2018-11-28T12:49:51.663Z,10.60
2018-11-28T12:54:56.111Z,10.53
2018-11-28T13:00:00.295Z,11.87
2018-11-28T13:05:09.856Z,9.87
2018-11-28T13:10:17.181Z,14.30
2018-11-28T13:15:23.163Z,10.70
2018-11-28T13:20:28.277Z,9.83
2018-11-28T13:25:40.379Z,11.37
2018-11-28T13:30:44.550Z,11.00
2018-11-28T13:35:48.716Z,8.80
2018-11-28T13:40:52.798Z,8.17
2018-11-28T13:45:57.593Z,10.40
2018-11-28T13:51:02.047Z,15.60
2018-11-28T14:01:11.092Z,11.90
2018-11-28T14:06:15.196Z,8.80
2018-11-28T14:11:20.964Z,11.03
2018-11-28T14:16:25.092Z,9.43
2018-11-28T14:21:29.873Z,9.57
2018-11-28T14:26:35.628Z,10.03
2018-11-28T14:31:40.032Z,11.80
2018-11-28T14:36:44.852Z,11.23
2018-11-28T14:41:49.329Z,8.90
2018-11-28T14:46:54.105Z,9.90
2018-11-28T14:51:58.544Z,11.33
2018-11-28T14:57:05.449Z,11.10
2018-11-28T15:02:10.231Z,12.33
2018-11-28T15:07:14.375Z,11.67
2018-11-28T15:12:18.798Z,10.40
2018-11-28T15:17:23.594Z,11.50
2018-11-28T15:22:28.127Z,11.80
2018-11-28T15:27:33.669Z,11.70
2018-11-28T15:32:38.151Z,11.53
2018-11-28T15:37:42.912Z,11.33
2018-11-28T15:42:47.743Z,12.87
2018-11-28T15:47:52.235Z,11.67
2018-11-28T15:52:56.365Z,13.10
2018-11-28T15:58:01.145Z,12.73
2018-11-28T16:03:05.646Z,12.50
2018-11-28T16:08:09.771Z,12.23
2018-11-28T16:13:16.397Z,12.40
2018-11-28T16:18:20.500Z,13.10
2018-11-28T16:23:24.993Z,17.20
2018-11-28T16:28:33.171Z,13.50
2018-11-28T16:33:37.289Z,11.07
2018-11-28T16:38:41.761Z,13.60
2018-11-28T16:43:46.557Z,12.30
2018-11-28T16:48:51.013Z,15.10
2018-11-28T16:53:55.197Z,16.20
2018-11-28T16:58:59.273Z,12.73
2018-11-28T17:04:03.404Z,13.77
2018-11-28T17:09:09.235Z,15.80
2018-11-28T17:14:13.456Z,12.50
2018-11-28T17:19:17.935Z,13.17
2018-11-28T17:24:23.103Z,11.87
2018-11-28T17:29:28.676Z,12.10
2018-11-28T17:34:32.897Z,11.50
2018-11-28T17:39:37.369Z,12.50
2018-11-28T17:44:41.517Z,13.37
2018-11-28T17:49:45.965Z,14.73
2018-11-28T17:54:50.418Z,12.53
2018-11-28T17:59:54.581Z,13.80
2018-11-28T18:04:59.029Z,13.83
2018-11-28T18:10:03.849Z,13.23
2018-11-28T18:15:08.533Z,12.37
2018-11-28T18:20:13.024Z,15.17
2018-11-28T18:25:17.167Z,13.53
2018-11-28T18:30:21.434Z,11.67
2018-11-28T18:35:25.899Z,12.33
2018-11-28T18:40:30.043Z,14.30
2018-11-28T18:45:36.434Z,13.97
2018-11-28T18:50:40.309Z,13.47
2018-11-28T18:55:44.775Z,15.27
2018-11-28T19:00:48.907Z,15.00
2018-11-28T19:05:53.660Z,16.17
2018-11-28T19:10:58.602Z,17.27
2018-11-28T19:16:02.604Z,17.20
2018-11-28T19:21:06.700Z,18.10
2018-11-28T19:26:11.190Z,18.57
2018-11-28T19:31:15.266Z,19.87
2018-11-28T19:36:20.086Z,21.97
2018-11-28T19:41:25.888Z,22.73
2018-11-28T19:46:30.673Z,18.60
2018-11-28T19:51:35.209Z,26.37
2018-11-28T19:56:39.347Z,21.60
2018-11-28T20:01:43.611Z,24.07
2018-11-28T20:06:48.181Z,24.23
2018-11-28T20:11:52.627Z,26.57
2018-11-28T20:16:57.296Z,25.47
2018-11-28T20:22:01.557Z,32.30
2018-11-28T20:27:06.865Z,26.13
2018-11-28T20:32:11.040Z,29.30
2018-11-28T20:37:15.180Z,26.70
2018-11-28T20:42:20.016Z,31.63
2018-11-28T20:47:24.586Z,26.50
2018-11-28T20:52:29.075Z,28.23
2018-11-28T20:57:33.275Z,28.63
2018-11-28T21:02:37.407Z,31.47
2018-11-28T21:07:42.398Z,32.00
2018-11-28T21:12:46.584Z,37.30
2018-11-28T21:17:51.143Z,38.33
2018-11-28T21:22:56.488Z,37.17
2018-11-28T21:28:00.805Z,39.80
2018-11-28T21:33:05.609Z,40.13
2018-11-28T21:38:09.787Z,42.70
2018-11-28T21:43:14.000Z,42.17
2018-11-28T21:48:18.100Z,43.27
2018-11-28T21:53:22.550Z,41.30
2018-11-28T21:58:27.031Z,43.27
2018-11-28T22:03:31.147Z,46.57
2018-11-28T22:08:35.257Z,51.77
2018-11-28T22:13:39.385Z,46.93
2018-11-28T22:18:43.519Z,42.30
2018-11-28T22:23:47.963Z,44.60
2018-11-28T22:28:53.641Z,49.27
2018-11-28T22:33:57.760Z,48.63
2018-11-28T22:39:02.504Z,44.40
2018-11-28T22:44:06.693Z,47.60
2018-11-28T22:49:10.817Z,46.53
2018-11-28T22:54:14.999Z,47.27
2018-11-28T22:59:19.522Z,48.33
2018-11-28T23:04:23.672Z,49.53
2018-11-28T23:09:28.488Z,48.90
2018-11-28T23:14:32.654Z,45.63
2018-11-28T23:19:36.830Z,51.03
2018-11-28T23:24:41.289Z,50.43
2018-11-28T23:29:48.029Z,48.87
2018-11-28T23:34:52.142Z,50.13
2018-11-28T23:39:56.366Z,50.63
2018-11-28T23:45:00.819Z,54.63
2018-11-28T23:50:07.420Z,53.87
2018-11-28T23:55:13.982Z,56.23
